Terminal Aerodrome Forecast
Issued by NWS

Home | Current Version | Previous Version | Text Only | Print | Product List | Glossary On
Versions: 1 2 3 4 5 6 7 8 9 10 11 12 13 14
000
FTUS44 KLZK 020500
TAFBPK
TAF
KBPK 020520Z 0206/0306 15008KT P6SM VCTS SCT040CB BKN120
      TEMPO 0206/0208 VRB15G30KT 3SM -TSRA BKN025CB
     FM020800 16007KT P6SM VCTS SCT025 BKN040CB
     FM021000 18007KT P6SM BKN040 BKN080
      TEMPO 0210/0213 -TSRA BKN030CB
     FM021500 22009KT P6SM SCT040 BKN080 PROB30 0218/0224 5SM -TSRA
      BKN040CB
     FM030100 19006KT P6SM SCT080=

USA.gov is the U.S. government's official web portal to all federal, state and local government web resources and services.